createdAt,value
2022-10-06T00:02:06.397Z,96.48
2022-10-06T00:05:09.037Z,96.27
2022-10-06T00:08:11.800Z,95.97
2022-10-06T00:11:15.523Z,95.83
2022-10-06T00:14:18.041Z,96.73
2022-10-06T00:17:20.569Z,96.58
2022-10-06T00:20:25.706Z,96.15
2022-10-06T00:23:29.178Z,96.00
2022-10-06T00:26:31.738Z,96.46
2022-10-06T00:29:34.464Z,96.38
2022-10-06T00:32:37.941Z,96.99
2022-10-06T00:35:40.441Z,96.89
2022-10-06T00:38:43.323Z,96.97
2022-10-06T00:41:45.884Z,96.91
2022-10-06T00:44:49.827Z,96.97
2022-10-06T00:47:53.672Z,96.71
2022-10-06T00:50:57.431Z,96.83
2022-10-06T00:54:01.088Z,96.80
2022-10-06T00:57:05.535Z,97.21
2022-10-06T01:00:09.413Z,97.10
2022-10-06T01:03:16.118Z,96.98
2022-10-06T01:06:18.665Z,97.26
2022-10-06T01:09:22.352Z,97.50
2022-10-06T01:12:26.708Z,97.92
2022-10-06T01:15:29.419Z,97.87
2022-10-06T01:18:32.397Z,97.75
2022-10-06T01:21:39.380Z,97.44
2022-10-06T01:24:42.265Z,97.63
2022-10-06T01:27:50.904Z,97.64
2022-10-06T01:30:54.855Z,97.80
2022-10-06T01:33:58.026Z,97.83
2022-10-06T01:37:00.515Z,97.75
2022-10-06T01:40:03.303Z,97.65
2022-10-06T01:43:05.903Z,98.03
2022-10-06T01:46:08.489Z,97.57
2022-10-06T01:49:11.036Z,97.74
2022-10-06T01:52:13.617Z,97.89
2022-10-06T01:55:17.443Z,97.98
2022-10-06T01:58:20.248Z,98.37
2022-10-06T02:01:22.881Z,98.61
2022-10-06T02:04:25.539Z,97.87
2022-10-06T02:07:28.477Z,98.92
2022-10-06T02:10:31.495Z,98.64
2022-10-06T02:13:34.171Z,98.50
2022-10-06T02:16:36.699Z,98.44
2022-10-06T02:19:39.298Z,98.68
2022-10-06T02:22:43.880Z,98.83
2022-10-06T02:25:46.401Z,99.61
2022-10-06T02:28:50.239Z,99.32
2022-10-06T02:31:52.828Z,99.14
2022-10-06T02:34:55.871Z,99.13
2022-10-06T02:37:58.497Z,99.13
2022-10-06T02:41:02.257Z,99.40
2022-10-06T02:44:05.344Z,99.58
2022-10-06T02:47:14.371Z,99.25
2022-10-06T02:50:17.117Z,99.30
2022-10-06T02:53:20.049Z,98.93
2022-10-06T02:56:24.383Z,98.89
2022-10-06T02:59:27.783Z,98.85
2022-10-06T03:02:31.131Z,98.96
2022-10-06T03:05:33.743Z,99.18
2022-10-06T03:08:36.297Z,100.00
2022-10-06T03:11:40.969Z,99.85
2022-10-06T03:14:43.480Z,99.99
2022-10-06T03:17:49.523Z,100.00
2022-10-06T03:20:54.175Z,99.98
2022-10-06T03:23:57.825Z,100.00
2022-10-06T03:27:00.367Z,99.83
2022-10-06T03:30:03.699Z,100.00
2022-10-06T03:33:06.895Z,100.00
2022-10-06T03:36:17.491Z,100.00
2022-10-06T03:39:20.042Z,100.00
2022-10-06T03:42:22.691Z,100.00
2022-10-06T03:45:25.284Z,100.00
2022-10-06T03:48:33.523Z,100.00
2022-10-06T03:51:41.024Z,100.00
2022-10-06T03:54:43.544Z,100.00
2022-10-06T03:57:46.054Z,100.00
2022-10-06T04:00:48.591Z,100.00
2022-10-06T04:03:51.978Z,100.00
2022-10-06T04:06:54.613Z,100.00
2022-10-06T04:09:57.203Z,100.00
2022-10-06T04:12:59.824Z,100.00
2022-10-06T04:16:17.586Z,99.97
2022-10-06T04:19:20.301Z,99.92
2022-10-06T04:22:22.857Z,100.00
2022-10-06T04:25:25.377Z,100.00
2022-10-06T04:28:28.248Z,100.00
2022-10-06T04:31:33.769Z,100.00
2022-10-06T04:34:36.364Z,100.00
2022-10-06T04:37:39.609Z,100.00
2022-10-06T04:40:42.153Z,100.00
2022-10-06T04:43:48.811Z,100.00
2022-10-06T04:46:51.395Z,100.00
2022-10-06T04:49:53.953Z,100.00
2022-10-06T04:52:57.224Z,100.00
2022-10-06T04:56:12.167Z,100.00
2022-10-06T04:59:14.996Z,100.00
2022-10-06T05:02:17.736Z,100.00
2022-10-06T05:05:20.378Z,100.00
2022-10-06T05:08:22.906Z,100.00
2022-10-06T05:11:26.304Z,100.00
2022-10-06T05:14:28.888Z,100.00
2022-10-06T05:17:31.399Z,100.00
2022-10-06T05:20:36.454Z,100.00
2022-10-06T05:23:41.285Z,100.00
2022-10-06T05:26:43.933Z,100.00
2022-10-06T05:29:47.565Z,100.00
2022-10-06T05:32:50.699Z,100.00
2022-10-06T05:36:04.196Z,100.00
2022-10-06T05:39:07.304Z,100.00
2022-10-06T05:42:09.920Z,100.00
2022-10-06T05:45:12.511Z,100.00
2022-10-06T05:48:15.093Z,100.00
2022-10-06T05:51:19.334Z,100.00
2022-10-06T05:54:21.899Z,100.00
2022-10-06T05:57:24.442Z,100.00
2022-10-06T06:00:27.101Z,100.00
2022-10-06T06:03:29.750Z,100.00
2022-10-06T06:06:34.918Z,100.00
2022-10-06T06:09:37.885Z,100.00
2022-10-06T06:12:40.438Z,100.00
2022-10-06T06:16:01.257Z,100.00
2022-10-06T06:19:04.031Z,100.00
2022-10-06T06:22:06.606Z,100.00
2022-10-06T06:25:09.623Z,100.00
2022-10-06T06:28:12.176Z,100.00
2022-10-06T06:31:30.028Z,100.00
2022-10-06T06:34:32.584Z,100.00
2022-10-06T06:37:35.121Z,100.00
2022-10-06T06:40:41.590Z,100.00
2022-10-06T06:43:45.536Z,100.00
2022-10-06T06:46:49.423Z,100.00
2022-10-06T06:49:51.964Z,100.00
2022-10-06T06:52:55.269Z,100.00
2022-10-06T06:55:58.240Z,100.00
2022-10-06T06:59:02.199Z,100.00
2022-10-06T07:02:04.929Z,100.00
2022-10-06T07:05:07.490Z,100.00
2022-10-06T07:08:10.480Z,99.73
2022-10-06T07:11:18.219Z,99.65
2022-10-06T07:14:22.791Z,99.69
2022-10-06T07:17:44.095Z,98.61
2022-10-06T07:21:05.259Z,97.56
2022-10-06T07:24:27.865Z,96.70
2022-10-06T07:27:31.190Z,96.84
2022-10-06T07:30:38.407Z,96.83
2022-10-06T07:33:43.148Z,96.09
2022-10-06T07:36:46.940Z,95.41
2022-10-06T07:39:49.821Z,94.38
2022-10-06T07:42:52.498Z,93.15
2022-10-06T07:45:56.478Z,91.30
2022-10-06T07:48:59.665Z,89.31
2022-10-06T07:52:05.541Z,88.67
2022-10-06T07:55:08.330Z,87.30
2022-10-06T07:58:19.562Z,86.62
2022-10-06T08:01:22.207Z,85.34
2022-10-06T08:04:24.869Z,84.79
2022-10-06T08:07:27.375Z,84.22
2022-10-06T08:10:29.944Z,84.45
2022-10-06T08:13:32.626Z,83.23
2022-10-06T08:16:35.331Z,83.23
2022-10-06T08:19:38.359Z,82.04
2022-10-06T08:22:41.030Z,81.58
2022-10-06T08:25:50.992Z,82.14
2022-10-06T08:28:55.611Z,81.71
2022-10-06T08:31:59.733Z,81.45
2022-10-06T08:35:02.439Z,80.97
2022-10-06T08:38:05.503Z,80.28
2022-10-06T08:41:18.363Z,79.86
2022-10-06T08:44:32.486Z,79.21
2022-10-06T08:47:36.092Z,78.55
2022-10-06T08:51:38.126Z,78.09
2022-10-06T08:54:58.453Z,78.09
2022-10-06T08:58:31.223Z,78.89
2022-10-06T09:01:45.205Z,77.08
2022-10-06T09:04:49.821Z,78.45
2022-10-06T09:08:16.465Z,76.76
2022-10-06T09:11:32.026Z,77.91
2022-10-06T09:14:51.665Z,76.26
2022-10-06T09:18:02.387Z,76.51
2022-10-06T09:21:07.155Z,74.49
2022-10-06T09:24:18.422Z,72.46
2022-10-06T09:27:24.133Z,73.52
2022-10-06T09:30:27.139Z,73.32
2022-10-06T09:33:37.262Z,72.21
2022-10-06T09:37:09.911Z,71.71
2022-10-06T09:40:54.728Z,69.17
2022-10-06T09:44:00.088Z,68.18
2022-10-06T09:47:02.666Z,68.46
2022-10-06T09:50:27.851Z,68.63
2022-10-06T09:53:33.220Z,66.25
2022-10-06T09:56:45.325Z,66.98
2022-10-06T09:59:48.206Z,65.91
2022-10-06T10:03:06.055Z,66.45
2022-10-06T10:06:09.288Z,65.04
2022-10-06T10:09:21.797Z,65.20
2022-10-06T10:12:28.426Z,65.00
2022-10-06T10:15:39.447Z,62.48
2022-10-06T10:18:46.528Z,61.48
2022-10-06T10:21:49.384Z,60.49
2022-10-06T10:25:07.320Z,59.92
2022-10-06T10:28:34.796Z,57.97
2022-10-06T10:31:43.542Z,56.59
2022-10-06T10:35:00.548Z,53.71
2022-10-06T10:38:18.783Z,55.16
2022-10-06T10:41:25.039Z,53.55
2022-10-06T10:44:37.489Z,54.42
2022-10-06T10:47:43.039Z,54.21
2022-10-06T10:51:01.745Z,53.46
2022-10-06T10:54:21.673Z,55.14
2022-10-06T10:57:30.713Z,54.81
2022-10-06T11:00:36.526Z,54.08
2022-10-06T11:03:39.164Z,52.47
2022-10-06T11:07:14.416Z,52.98
2022-10-06T11:10:22.416Z,51.66
2022-10-06T11:13:51.293Z,52.26
2022-10-06T11:17:01.513Z,51.79
2022-10-06T11:20:11.744Z,52.79
2022-10-06T11:23:37.377Z,52.41
2022-10-06T11:26:41.212Z,53.04
2022-10-06T11:30:05.719Z,51.61
2022-10-06T11:33:16.724Z,53.07
2022-10-06T11:36:49.000Z,51.49
2022-10-06T11:40:09.789Z,50.21
2022-10-06T11:43:20.242Z,47.92
2022-10-06T11:46:46.214Z,49.68
2022-10-06T11:49:53.702Z,50.93
2022-10-06T11:52:56.498Z,50.39
2022-10-06T11:56:17.485Z,48.71
2022-10-06T11:59:31.802Z,47.56
2022-10-06T12:02:37.568Z,44.85
2022-10-06T12:05:56.867Z,46.14
2022-10-06T12:08:59.947Z,45.28
2022-10-06T12:12:08.374Z,44.82
2022-10-06T12:18:54.459Z,48.77
2022-10-06T12:22:16.986Z,47.20
2022-10-06T12:25:28.494Z,45.57
2022-10-06T12:28:42.028Z,45.50
2022-10-06T12:32:00.775Z,42.24
2022-10-06T12:35:10.506Z,42.90
2022-10-06T12:38:31.551Z,44.02
2022-10-06T12:42:00.336Z,41.42
2022-10-06T12:45:16.389Z,41.38
2022-10-06T12:48:24.994Z,40.31
2022-10-06T12:51:43.096Z,41.15
2022-10-06T12:55:03.462Z,41.71
2022-10-06T12:58:08.195Z,42.21
2022-10-06T13:01:12.902Z,41.64
2022-10-06T13:04:36.032Z,41.65
2022-10-06T13:07:57.380Z,38.64
2022-10-06T13:11:12.253Z,40.98
2022-10-06T13:14:15.194Z,41.15
2022-10-06T13:17:17.776Z,41.45
2022-10-06T13:20:36.789Z,44.44
2022-10-06T13:23:39.806Z,47.14
2022-10-06T13:26:42.748Z,48.89
2022-10-06T13:29:45.404Z,48.36
2022-10-06T13:32:57.643Z,45.33
2022-10-06T13:36:00.296Z,42.82
2022-10-06T13:39:07.315Z,42.34
2022-10-06T13:42:17.794Z,42.40
2022-10-06T13:45:20.524Z,43.10
2022-10-06T13:48:26.162Z,44.42
2022-10-06T13:51:30.999Z,44.78
2022-10-06T13:54:38.890Z,43.55
2022-10-06T13:58:06.515Z,43.30
2022-10-06T14:01:12.308Z,41.96
2022-10-06T14:04:18.422Z,43.32
2022-10-06T14:07:22.354Z,45.40
2022-10-06T14:10:31.633Z,46.69
2022-10-06T14:13:56.680Z,45.25
2022-10-06T14:16:59.426Z,42.81
2022-10-06T14:20:02.434Z,44.73
2022-10-06T14:23:43.339Z,44.77
2022-10-06T14:26:50.089Z,43.13
2022-10-06T14:29:53.045Z,42.46
2022-10-06T14:32:55.548Z,43.02
2022-10-06T14:35:58.164Z,45.11
2022-10-06T14:39:01.579Z,45.36
2022-10-06T14:42:04.327Z,45.40
2022-10-06T14:45:08.206Z,46.37
2022-10-06T14:48:12.085Z,46.79
2022-10-06T14:51:16.823Z,47.27
2022-10-06T14:54:20.468Z,47.61
2022-10-06T14:57:23.063Z,48.42
2022-10-06T15:00:29.272Z,49.32
2022-10-06T15:03:32.059Z,49.64
2022-10-06T15:06:53.204Z,50.79
2022-10-06T15:09:57.366Z,51.58
2022-10-06T15:13:00.423Z,52.92
2022-10-06T15:16:02.995Z,54.51
2022-10-06T15:19:05.799Z,56.33
2022-10-06T15:22:10.145Z,57.49
2022-10-06T15:25:32.782Z,58.26
2022-10-06T15:28:53.852Z,59.24
2022-10-06T15:31:56.719Z,60.16
2022-10-06T15:35:00.427Z,61.09
2022-10-06T15:38:05.115Z,62.26
2022-10-06T15:41:07.847Z,62.89
2022-10-06T15:44:11.710Z,63.23
2022-10-06T15:47:14.274Z,62.78
2022-10-06T15:50:19.184Z,63.36
2022-10-06T15:53:22.704Z,64.37
2022-10-06T15:56:28.966Z,65.69
2022-10-06T15:59:33.969Z,66.79
2022-10-06T16:02:38.062Z,67.75
2022-10-06T16:05:51.922Z,68.57
2022-10-06T16:08:54.570Z,69.29
2022-10-06T16:11:58.279Z,70.15
2022-10-06T16:15:00.933Z,71.37
2022-10-06T16:18:03.476Z,72.53
2022-10-06T16:21:06.282Z,73.57
2022-10-06T16:24:09.430Z,74.34
2022-10-06T16:27:13.680Z,74.84
2022-10-06T16:30:16.520Z,75.82
2022-10-06T16:33:19.011Z,76.86
2022-10-06T16:36:22.071Z,77.36
2022-10-06T16:39:24.741Z,78.02
2022-10-06T16:42:27.494Z,78.64
2022-10-06T16:45:30.057Z,79.02
2022-10-06T16:48:34.953Z,79.99
2022-10-06T16:51:39.984Z,80.26
2022-10-06T16:54:42.971Z,81.05
2022-10-06T16:57:45.581Z,81.48
2022-10-06T17:00:59.077Z,82.31
2022-10-06T17:04:12.046Z,82.76
2022-10-06T17:07:14.909Z,82.63
2022-10-06T17:10:21.379Z,83.71
2022-10-06T17:13:24.217Z,83.46
2022-10-06T17:16:33.506Z,83.96
2022-10-06T17:19:36.288Z,84.93
2022-10-06T17:22:39.265Z,84.92
2022-10-06T17:25:43.035Z,85.06
2022-10-06T17:28:48.744Z,85.62
2022-10-06T17:31:56.492Z,85.52
2022-10-06T17:34:59.316Z,86.27
2022-10-06T17:38:05.915Z,86.13
2022-10-06T17:41:17.314Z,86.50
2022-10-06T17:44:27.454Z,87.05
2022-10-06T17:47:30.511Z,88.20
2022-10-06T17:50:33.729Z,88.34
2022-10-06T17:53:40.995Z,87.95
2022-10-06T17:56:44.902Z,88.24
2022-10-06T17:59:48.311Z,89.23
2022-10-06T18:02:57.269Z,89.46
2022-10-06T18:06:01.059Z,89.24
2022-10-06T18:09:05.843Z,88.89
2022-10-06T18:12:10.597Z,89.31
2022-10-06T18:15:13.432Z,89.84
2022-10-06T18:18:16.147Z,89.98
2022-10-06T18:21:24.960Z,90.75
2022-10-06T18:24:30.233Z,90.09
2022-10-06T18:27:33.586Z,90.19
2022-10-06T18:30:36.217Z,90.33
2022-10-06T18:36:10.579Z,90.68
2022-10-06T18:37:02.042Z,91.90
2022-10-06T18:40:07.111Z,92.16
2022-10-06T18:43:09.870Z,92.26
2022-10-06T18:46:32.686Z,92.69
2022-10-06T18:49:35.672Z,92.82
2022-10-06T18:52:38.401Z,92.39
2022-10-06T18:55:40.960Z,92.31
2022-10-06T18:58:48.626Z,92.05
2022-10-06T19:01:51.499Z,92.97
2022-10-06T19:04:55.445Z,93.11
2022-10-06T19:07:58.587Z,93.32
2022-10-06T19:11:24.969Z,93.73
2022-10-06T19:14:31.347Z,92.96
2022-10-06T19:17:34.238Z,94.24
2022-10-06T19:20:36.999Z,93.53
2022-10-06T19:23:40.790Z,93.93
2022-10-06T19:26:46.108Z,93.54
2022-10-06T19:29:54.808Z,93.27
2022-10-06T19:32:57.631Z,93.17
2022-10-06T19:36:00.954Z,93.62
2022-10-06T19:39:06.032Z,93.78
2022-10-06T19:42:36.069Z,93.50
2022-10-06T19:45:39.121Z,93.97
2022-10-06T19:48:41.934Z,94.25
2022-10-06T19:51:44.491Z,94.69
2022-10-06T19:54:47.386Z,95.02
2022-10-06T19:57:51.187Z,94.89
2022-10-06T20:00:53.833Z,94.99
2022-10-06T20:03:56.438Z,94.97
2022-10-06T20:07:01.866Z,94.94
2022-10-06T20:10:04.811Z,95.27
2022-10-06T20:13:07.419Z,95.23
2022-10-06T20:16:12.077Z,95.10
2022-10-06T20:19:14.933Z,95.35
2022-10-06T20:22:17.561Z,95.12
2022-10-06T20:25:20.180Z,95.26
2022-10-06T20:28:22.941Z,94.91
2022-10-06T20:31:31.664Z,94.76
2022-10-06T20:34:34.693Z,95.60
2022-10-06T20:37:38.513Z,95.64
2022-10-06T20:40:49.114Z,95.54
2022-10-06T20:43:54.116Z,95.45
2022-10-06T20:46:56.764Z,95.92
2022-10-06T20:49:59.288Z,95.91
2022-10-06T20:53:01.833Z,96.11
2022-10-06T20:56:05.830Z,95.56
2022-10-06T20:59:11.546Z,96.06
2022-10-06T21:02:14.105Z,96.18
2022-10-06T21:05:16.917Z,96.39
2022-10-06T21:08:19.433Z,96.33
2022-10-06T21:11:23.856Z,95.91
2022-10-06T21:14:26.435Z,96.12
2022-10-06T21:17:29.009Z,96.64
2022-10-06T21:20:31.589Z,96.00
2022-10-06T21:23:40.068Z,95.89
2022-10-06T21:26:42.846Z,96.41
2022-10-06T21:29:45.507Z,96.60
2022-10-06T21:32:48.134Z,96.78
2022-10-06T21:36:01.076Z,96.83
2022-10-06T21:39:07.065Z,96.52
2022-10-06T21:42:09.767Z,96.71
2022-10-06T21:45:12.405Z,96.95
2022-10-06T21:48:15.250Z,97.16
2022-10-06T21:51:18.095Z,96.86
2022-10-06T21:54:22.046Z,96.97
2022-10-06T21:57:24.543Z,96.87
2022-10-06T22:00:27.120Z,96.90
2022-10-06T22:03:29.627Z,96.88
2022-10-06T22:06:34.341Z,96.37
2022-10-06T22:09:36.822Z,96.79
2022-10-06T22:12:39.368Z,97.36
2022-10-06T22:15:41.908Z,97.60
2022-10-06T22:18:45.195Z,97.76
2022-10-06T22:21:48.739Z,97.61
2022-10-06T22:24:51.404Z,97.55
2022-10-06T22:27:53.958Z,97.83
2022-10-06T22:31:08.089Z,97.46
2022-10-06T22:34:12.970Z,97.99
2022-10-06T22:37:15.550Z,97.83
2022-10-06T22:40:18.067Z,97.32
2022-10-06T22:43:20.665Z,97.31
2022-10-06T22:46:24.904Z,98.29
2022-10-06T22:49:27.867Z,98.43
2022-10-06T22:52:30.425Z,98.55
2022-10-06T22:55:33.119Z,98.92
2022-10-06T22:58:35.817Z,99.05
2022-10-06T23:01:38.432Z,98.39
2022-10-06T23:04:40.977Z,98.51
2022-10-06T23:07:43.853Z,98.93
2022-10-06T23:10:46.585Z,98.68
2022-10-06T23:13:50.763Z,98.16
2022-10-06T23:16:53.420Z,98.11
2022-10-06T23:19:56.078Z,98.65
2022-10-06T23:22:58.585Z,99.15
2022-10-06T23:26:09.731Z,98.98
2022-10-06T23:29:12.430Z,98.70
2022-10-06T23:32:15.017Z,99.04
2022-10-06T23:35:17.584Z,98.97
2022-10-06T23:38:20.192Z,98.18
2022-10-06T23:41:22.800Z,98.82
2022-10-06T23:44:25.486Z,99.63
2022-10-06T23:47:28.051Z,99.40
2022-10-06T23:50:33.506Z,98.66
2022-10-06T23:53:36.527Z,98.99
2022-10-06T23:56:39.109Z,98.96
2022-10-06T23:59:41.912Z,98.66
